| time (UTC) | temp C | wind direction | speed KPH | gust KPH | rain 1hr cm | rain 24hr cm | rain mn cm | humidity % | barometer mb |
| 20260831053618 | 21 | 122 | 1.6 | 8.0 | 0.00 | 0.03 | 0.03 | 41 | 1025.8 |
| 20260831053111 | 21 | 253 | 3.2 | 8.0 | 0.00 | 0.05 | 0.03 | 42 | 1026.0 |
| 20260831052605 | 20 | 61 | 1.6 | 6.4 | 0.00 | 0.05 | 0.03 | 47 | 1026.1 |
| 20260831052120 | 20 | 182 | 1.6 | 3.2 | 0.00 | 0.05 | 0.03 | 44 | 1026.1 |
| 20260831051635 | 20 | 175 | 0.0 | 4.8 | 0.00 | 0.05 | 0.03 | 50 | 1026.2 |
| 20260831051108 | 20 | 109 | 1.6 | 8.0 | 0.00 | 0.05 | 0.03 | 51 | 1026.2 |
| 20260831050602 | 20 | 246 | 0.0 | 6.4 | 0.00 | 0.05 | 0.03 | 49 | 1026.2 |
| 20260831050100 | 20 | 246 | 3.2 | 6.4 | 0.00 | 0.05 | 0.03 | 49 | 1026.2 |
| 20260831045614 | 20 | 324 | 0.0 | 0.0 | 0.00 | 0.05 | 0.03 | 51 | 1026.1 |
| 20260831045128 | 20 | 324 | 0.0 | 4.8 | 0.00 | 0.05 | 0.03 | 51 | 1026.1 |
| 20260831044601 | 20 | 324 | 3.2 | 6.4 | 0.00 | 0.05 | 0.03 | 52 | 1026.1 |
| 20260831044113 | 20 | 242 | 3.2 | 6.4 | 0.00 | 0.05 | 0.03 | 50 | 1026.1 |
| 20260831043608 | 20 | 207 | 0.0 | 3.2 | 0.00 | 0.05 | 0.03 | 52 | 1026.0 |
| 20260831043102 | 20 | 207 | 0.0 | 3.2 | 0.00 | 0.05 | 0.03 | 49 | 1026.2 |
| 20260831042616 | 20 | 207 | 0.0 | 1.6 | 0.00 | 0.05 | 0.03 | 52 | 1026.2 |
| 20260831042131 | 20 | 207 | 0.0 | 3.2 | 0.00 | 0.05 | 0.03 | 52 | 1026.2 |
| 20260831041608 | 20 | 207 | 1.6 | 3.2 | 0.00 | 0.05 | 0.03 | 52 | 1026.2 |
| 20260831041102 | 21 | 207 | 1.6 | 1.6 | 0.00 | 0.05 | 0.03 | 50 | 1026.0 |
| 20260831040614 | 21 | 207 | 0.0 | 0.0 | 0.00 | 0.05 | 0.03 | 52 | 1026.1 |
| 20260831040107 | 21 | 207 | 0.0 | 0.0 | 0.00 | 0.05 | 0.03 | 50 | 1026.2 |
| 20260831035622 | 21 | 207 | 0.0 | 0.0 | 0.00 | 0.05 | 0.03 | 49 | 1026.2 |
| 20260831035116 | 21 | 207 | 0.0 | 0.0 | 0.00 | 0.05 | 0.03 | 50 | 1026.4 |
| 20260831034609 | 21 | 207 | 0.0 | 0.0 | 0.00 | 0.05 | 0.03 | 49 | 1026.3 |
| 20260831034103 | 22 | 207 | 0.0 | 0.0 | 0.00 | 0.05 | 0.03 | 47 | 1026.2 |
| 20260831033601 | 22 | 207 | 0.0 | 0.0 | 0.00 | 0.05 | 0.03 | 47 | 1026.2 |
| 20260831033115 | 22 | 207 | 0.0 | 0.0 | 0.00 | 0.13 | 0.03 | 46 | 1026.2 |
| 20260831032609 | 22 | 207 | 0.0 | 0.0 | 0.00 | 0.13 | 0.03 | 43 | 1026.0 |
| 20260831032103 | 22 | 207 | 0.0 | 1.6 | 0.00 | 0.13 | 0.03 | 46 | 1026.0 |
| 20260831031617 | 22 | 207 | 0.0 | 1.6 | 0.00 | 0.13 | 0.03 | 42 | 1026.0 |
| 20260831031110 | 22 | 207 | 1.6 | 3.2 | 0.00 | 0.13 | 0.03 | 41 | 1025.9 |
| 20260831030625 | 22 | 207 | 1.6 | 3.2 | 0.00 | 0.13 | 0.03 | 41 | 1025.8 |
| 20260831030117 | 22 | 207 | 1.6 | 3.2 | 0.00 | 0.13 | 0.03 | 42 | 1025.8 |
| 20260831025611 | 22 | 207 | 1.6 | 4.8 | 0.00 | 0.13 | 0.03 | 42 | 1025.7 |
| 20260831025106 | 22 | 207 | 1.6 | 4.8 | 0.00 | 0.13 | 0.03 | 42 | 1025.7 |
| 20260831024603 | 21 | 150 | 1.6 | 3.2 | 0.00 | 0.13 | 0.03 | 45 | 1025.7 |
| 20260831024118 | 21 | 150 | 0.0 | 0.0 | 0.00 | 0.13 | 0.03 | 47 | 1025.6 |
| 20260831023612 | 21 | 150 | 0.0 | 0.0 | 0.00 | 0.13 | 0.03 | 45 | 1025.5 |
| 20260831023106 | 21 | 150 | 0.0 | 0.0 | 0.00 | 0.18 | 0.03 | 48 | 1025.4 |
| 20260831022620 | 21 | 150 | 0.0 | 0.0 | 0.00 | 0.18 | 0.03 | 46 | 1025.4 |
| 20260831022114 | 21 | 150 | 0.0 | 0.0 | 0.00 | 0.18 | 0.03 | 46 | 1025.4 |
| 20260831021609 | 22 | 150 | 0.0 | 0.0 | 0.00 | 0.18 | 0.03 | 49 | 1025.4 |
| 20260831021122 | 22 | 150 | 0.0 | 0.0 | 0.00 | 0.18 | 0.03 | 47 | 1025.3 |
| 20260831020615 | 22 | 150 | 0.0 | 0.0 | 0.00 | 0.18 | 0.03 | 46 | 1025.2 |
| 20260831020112 | 22 | 150 | 0.0 | 0.0 | 0.00 | 0.18 | 0.03 | 46 | 1025.1 |
| 20260831015607 | 22 | 150 | 0.0 | 0.0 | 0.00 | 0.18 | 0.03 | 42 | 1025.1 |
| 20260831015120 | 22 | 150 | 0.0 | 1.6 | 0.00 | 0.18 | 0.03 | 42 | 1025.2 |
| 20260831014614 | 22 | 150 | 0.0 | 3.2 | 0.00 | 0.18 | 0.03 | 43 | 1025.1 |
| 20260831014109 | 22 | 150 | 0.0 | 0.0 | 0.00 | 0.18 | 0.03 | 44 | 1025.0 |
| 20260831013623 | 23 | 150 | 0.0 | 0.0 | 0.00 | 0.18 | 0.03 | 44 | 1025.0 |
| 20260831013115 | 23 | 150 | 0.0 | 0.0 | 0.00 | 0.18 | 0.03 | 44 | 1025.0 |
| 20260831012609 | 23 | 150 | 0.0 | 0.0 | 0.00 | 0.18 | 0.03 | 47 | 1024.9 |
| 20260831012108 | 23 | 150 | 0.0 | 0.0 | 0.00 | 0.18 | 0.03 | 46 | 1025.0 |
| 20260831011601 | 23 | 150 | 0.0 | 0.0 | 0.00 | 0.18 | 0.03 | 47 | 1025.0 |
| 20260831011114 | 24 | 150 | 0.0 | 0.0 | 0.00 | 0.18 | 0.03 | 45 | 1025.0 |
| 20260831010607 | 24 | 150 | 0.0 | 0.0 | 0.00 | 0.18 | 0.03 | 44 | 1025.0 |
| 20260831005616 | 25 | 150 | 0.0 | 0.0 | 0.00 | 0.18 | 0.03 | 43 | 1025.0 |
| 20260831005130 | 25 | 150 | 0.0 | 0.0 | 0.00 | 0.18 | 0.03 | 41 | 1024.9 |
| 20260831004604 | 25 | 150 | 0.0 | 0.0 | 0.00 | 0.18 | 0.03 | 40 | 1025.0 |
| 20260831004101 | 25 | 150 | 0.0 | 0.0 | 0.00 | 0.18 | 0.03 | 39 | 1025.0 |
| 20260831003636 | 26 | 150 | 0.0 | 0.0 | 0.00 | 0.18 | 0.03 | 40 | 1025.0 |
| 20260831003108 | 26 | 150 | 0.0 | 1.6 | 0.00 | 0.18 | 0.03 | 40 | 1025.0 |
| 20260831002601 | 26 | 150 | 0.0 | 3.2 | 0.00 | 0.18 | 0.03 | 38 | 1025.1 |
| 20260831002116 | 26 | 150 | 1.6 | 3.2 | 0.00 | 0.18 | 0.03 | 35 | 1025.1 |
| 20260831001608 | 26 | 150 | 0.0 | 3.2 | 0.00 | 0.18 | 0.03 | 36 | 1025.1 |
| 20260831001102 | 26 | 150 | 0.0 | 0.0 | 0.00 | 0.18 | 0.03 | 37 | 1025.1 |
| 20260831000636 | 26 | 150 | 0.0 | 0.0 | 0.00 | 0.18 | 0.03 | 38 | 1025.0 |
| 20260831000109 | 26 | 150 | 0.0 | 0.0 | 0.00 | 0.18 | 0.03 | 37 | 1025.0 |
| 20260830235603 | 26 | 150 | 0.0 | 0.0 | 0.00 | 0.18 | 0.03 | 36 | 1025.0 |
| 20260830235101 | 26 | 150 | 0.0 | 0.0 | 0.00 | 0.18 | 0.03 | 37 | 1025.0 |
| 20260830234615 | 25 | 145 | 0.0 | 0.0 | 0.00 | 0.18 | 0.03 | 38 | 1024.9 |
| 20260830234109 | 25 | 145 | 0.0 | 0.0 | 0.00 | 0.18 | 0.03 | 40 | 1025.0 |
| 20260830233602 | 25 | 145 | 0.0 | 0.0 | 0.00 | 0.18 | 0.03 | 39 | 1024.9 |
| 20260830233116 | 25 | 145 | 0.0 | 0.0 | 0.00 | 0.18 | 0.03 | 39 | 1025.0 |
| 20260830232609 | 25 | 145 | 0.0 | 0.0 | 0.00 | 0.18 | 0.03 | 38 | 1024.9 |
| 20260830232103 | 26 | 145 | 0.0 | 1.6 | 0.00 | 0.18 | 0.03 | 37 | 1025.0 |
| 20260830231617 | 26 | 145 | 0.0 | 9.7 | 0.00 | 0.18 | 0.03 | 38 | 1025.0 |
| 20260830231110 | 26 | 145 | 1.6 | 9.7 | 0.00 | 0.18 | 0.03 | 37 | 1025.1 |
| 20260830230608 | 26 | 117 | 0.0 | 4.8 | 0.00 | 0.18 | 0.03 | 39 | 1025.0 |
| 20260830225614 | 26 | 146 | 4.8 | 11.3 | 0.00 | 0.18 | 0.03 | 38 | 1025.1 |
| 20260830225109 | 25 | 143 | 3.2 | 6.4 | 0.00 | 0.18 | 0.03 | 39 | 1025.2 |
| 20260830224602 | 25 | 52 | 0.0 | 6.4 | 0.00 | 0.18 | 0.03 | 41 | 1025.2 |
| 20260830224117 | 25 | 50 | 3.2 | 6.4 | 0.00 | 0.18 | 0.03 | 41 | 1025.2 |
| 20260830223610 | 25 | 97 | 1.6 | 3.2 | 0.00 | 0.18 | 0.03 | 43 | 1025.3 |
| 20260830223103 | 25 | 120 | 0.0 | 3.2 | 0.00 | 0.18 | 0.03 | 42 | 1025.3 |
| 20260830222621 | 25 | 117 | 1.6 | 6.4 | 0.00 | 0.18 | 0.03 | 40 | 1025.3 |
| 20260830222114 | 25 | 153 | 1.6 | 8.0 | 0.00 | 0.18 | 0.03 | 41 | 1025.4 |
| 20260830221608 | 25 | 140 | 3.2 | 8.0 | 0.00 | 0.18 | 0.03 | 40 | 1025.4 |
| 20260830221102 | 26 | 67 | 3.2 | 4.8 | 0.00 | 0.18 | 0.03 | 41 | 1025.4 |
| 20260830220616 | 26 | 169 | 0.0 | 6.4 | 0.00 | 0.18 | 0.03 | 40 | 1025.4 |
| 20260830220130 | 26 | 139 | 3.2 | 6.4 | 0.00 | 0.18 | 0.03 | 39 | 1025.5 |
| 20260830215602 | 26 | 57 | 1.6 | 6.4 | 0.00 | 0.18 | 0.03 | 39 | 1025.5 |
| 20260830215116 | 26 | 16 | 1.6 | 6.4 | 0.00 | 0.18 | 0.03 | 38 | 1025.5 |
| 20260830214631 | 27 | 146 | 3.2 | 6.4 | 0.00 | 0.18 | 0.03 | 39 | 1025.5 |
| 20260830214107 | 26 | 51 | 3.2 | 6.4 | 0.00 | 0.18 | 0.03 | 41 | 1025.5 |
| 20260830213622 | 26 | 40 | 3.2 | 6.4 | 0.00 | 0.18 | 0.03 | 40 | 1025.6 |
| 20260830213115 | 26 | 136 | 1.6 | 4.8 | 0.00 | 0.18 | 0.03 | 41 | 1025.6 |
| 20260830212630 | 26 | 151 | 1.6 | 4.8 | 0.00 | 0.18 | 0.03 | 40 | 1025.7 |
| 20260830212123 | 26 | 147 | 1.6 | 6.4 | 0.00 | 0.18 | 0.03 | 41 | 1025.8 |
| 20260830211615 | 25 | 138 | 1.6 | 6.4 | 0.00 | 0.18 | 0.03 | 40 | 1025.9 |
| 20260830211109 | 25 | 163 | 3.2 | 8.0 | 0.00 | 0.18 | 0.03 | 41 | 1026.0 |
| 20260830210624 | 25 | 149 | 3.2 | 8.0 | 0.00 | 0.18 | 0.03 | 41 | 1026.0 |
| 20260830210137 | 25 | 36 | 0.0 | 6.4 | 0.00 | 0.18 | 0.03 | 42 | 1026.0 |
| 20260830205610 | 25 | 36 | 3.2 | 8.0 | 0.00 | 0.18 | 0.03 | 41 | 1026.1 |
| 20260830205124 | 25 | 35 | 3.2 | 8.0 | 0.00 | 0.18 | 0.03 | 41 | 1026.2 |
| 20260830204601 | 25 | 108 | 3.2 | 9.7 | 0.00 | 0.18 | 0.03 | 41 | 1026.2 |
| 20260830204115 | 25 | 59 | 4.8 | 14.5 | 0.00 | 0.18 | 0.03 | 41 | 1026.2 |
| 20260830203608 | 26 | 9 | 8.0 | 14.5 | 0.00 | 0.18 | 0.03 | 40 | 1026.4 |
| 20260830203101 | 26 | 150 | 3.2 | 8.0 | 0.00 | 0.18 | 0.03 | 42 | 1026.4 |
| 20260830202616 | 25 | 115 | 3.2 | 6.4 | 0.00 | 0.18 | 0.03 | 44 | 1026.5 |
| 20260830202111 | 25 | 65 | 4.8 | 6.4 | 0.00 | 0.18 | 0.03 | 43 | 1026.7 |
| 20260830201604 | 25 | 84 | 1.6 | 4.8 | 0.00 | 0.18 | 0.03 | 44 | 1026.9 |
| 20260830201139 | 25 | 84 | 1.6 | 8.0 | 0.00 | 0.18 | 0.03 | 43 | 1026.9 |
| 20260830200612 | 25 | 150 | 3.2 | 6.4 | 0.00 | 0.18 | 0.03 | 43 | 1027.0 |
| 20260830200110 | 25 | 163 | 4.8 | 8.0 | 0.00 | 0.18 | 0.03 | 42 | 1027.0 |
| 20260830195603 | 25 | 32 | 3.2 | 4.8 | 0.00 | 0.18 | 0.03 | 42 | 1027.0 |
| 20260830195117 | 26 | 75 | 3.2 | 8.0 | 0.00 | 0.18 | 0.03 | 44 | 1026.9 |
| 20260830194612 | 26 | 38 | 3.2 | 11.3 | 0.00 | 0.18 | 0.03 | 41 | 1026.9 |
| 20260830194107 | 26 | 138 | 4.8 | 11.3 | 0.00 | 0.18 | 0.03 | 43 | 1026.9 |
| 20260830193600 | 26 | 147 | 1.6 | 9.7 | 0.00 | 0.18 | 0.03 | 45 | 1026.9 |
| 20260830193114 | 26 | 149 | 4.8 | 9.7 | 0.00 | 0.18 | 0.03 | 44 | 1026.9 |
| 20260830192610 | 26 | 54 | 3.2 | 8.0 | 0.00 | 0.18 | 0.03 | 42 | 1026.9 |
| 20260830192125 | 25 | 158 | 3.2 | 12.9 | 0.00 | 0.18 | 0.03 | 42 | 1026.9 |
| 20260830191638 | 26 | 32 | 6.4 | 12.9 | 0.00 | 0.18 | 0.03 | 40 | 1026.9 |
| 20260830191108 | 26 | 153 | 3.2 | 8.0 | 0.00 | 0.18 | 0.03 | 43 | 1027.0 |
| 20260830190603 | 26 | 44 | 3.2 | 9.7 | 0.00 | 0.18 | 0.03 | 45 | 1027.0 |
| 20260830190116 | 25 | 149 | 3.2 | 9.7 | 0.00 | 0.18 | 0.03 | 43 | 1027.1 |
| 20260830185630 | 25 | 57 | 3.2 | 11.3 | 0.00 | 0.18 | 0.03 | 47 | 1027.1 |
| 20260830185123 | 25 | 102 | 4.8 | 11.3 | 0.00 | 0.18 | 0.03 | 44 | 1027.2 |
| 20260830184617 | 26 | 142 | 4.8 | 11.3 | 0.00 | 0.18 | 0.03 | 43 | 1027.3 |
| 20260830184111 | 26 | 127 | 4.8 | 11.3 | 0.00 | 0.18 | 0.03 | 45 | 1027.3 |
| 20260830183625 | 25 | 30 | 4.8 | 8.0 | 0.00 | 0.18 | 0.03 | 36 | 1027.3 |
| 20260830183101 | 25 | 300 | 4.8 | 14.5 | 0.00 | 0.18 | 0.03 | 35 | 1027.2 |
| 20260830182615 | 25 | 49 | 1.6 | 14.5 | 0.00 | 0.18 | 0.03 | 38 | 1027.4 |
| 20260830182111 | 25 | 26 | 1.6 | 6.4 | 0.00 | 0.18 | 0.03 | 37 | 1027.4 |
| 20260830181605 | 24 | 257 | 3.2 | 6.4 | 0.00 | 0.18 | 0.03 | 49 | 1027.6 |
| 20260830181119 | 24 | 251 | 3.2 | 8.0 | 0.00 | 0.18 | 0.03 | 48 | 1027.7 |
| 20260830180612 | 23 | 213 | 4.8 | 8.0 | 0.00 | 0.18 | 0.03 | 49 | 1027.8 |
| 20260830180106 | 23 | 25 | 1.6 | 4.8 | 0.00 | 0.18 | 0.03 | 51 | 1027.8 |
| 20260830175600 | 23 | 146 | 3.2 | 14.5 | 0.00 | 0.18 | 0.03 | 50 | 1028.0 |
| 20260830175134 | 23 | 152 | 4.8 | 14.5 | 0.00 | 0.18 | 0.03 | 49 | 1028.1 |
| 20260830174611 | 23 | 290 | 3.2 | 11.3 | 0.00 | 0.18 | 0.03 | 48 | 1028.2 |
| 20260830174106 | 23 | 177 | 1.6 | 11.3 | 0.00 | 0.18 | 0.03 | 50 | 1028.2 |
| 20260830173619 | 23 | 190 | 3.2 | 9.7 | 0.00 | 0.18 | 0.03 | 51 | 1028.3 |
| 20260830173113 | 23 | 26 | 1.6 | 8.0 | 0.00 | 0.18 | 0.03 | 52 | 1028.3 |
| 20260830172607 | 22 | 290 | 1.6 | 4.8 | 0.00 | 0.18 | 0.03 | 51 | 1028.5 |
| 20260830172101 | 22 | 228 | 0.0 | 4.8 | 0.00 | 0.18 | 0.03 | 52 | 1028.6 |
| 20260830171616 | 22 | 279 | 0.0 | 4.8 | 0.00 | 0.18 | 0.03 | 52 | 1028.8 |
| 20260830171115 | 22 | 346 | 1.6 | 8.0 | 0.00 | 0.18 | 0.03 | 53 | 1028.8 |
| 20260830170607 | 21 | 30 | 1.6 | 9.7 | 0.00 | 0.18 | 0.03 | 54 | 1028.8 |
| 20260830165635 | 21 | 145 | 1.6 | 4.8 | 0.00 | 0.18 | 0.03 | 57 | 1029.0 |
| 20260830165109 | 21 | 213 | 1.6 | 4.8 | 0.00 | 0.18 | 0.03 | 58 | 1029.0 |
| 20260830164603 | 21 | 257 | 1.6 | 8.0 | 0.00 | 0.18 | 0.03 | 59 | 1029.0 |
| 20260830164117 | 21 | 144 | 0.0 | 8.0 | 0.00 | 0.18 | 0.03 | 59 | 1029.1 |
| 20260830163610 | 21 | 148 | 1.6 | 11.3 | 0.00 | 0.18 | 0.03 | 59 | 1029.1 |
| 20260830163104 | 21 | 148 | 3.2 | 8.0 | 0.00 | 0.18 | 0.03 | 61 | 1029.1 |
| 20260830162601 | 20 | 123 | 1.6 | 12.9 | 0.00 | 0.18 | 0.03 | 60 | 1029.2 |
| 20260830162115 | 20 | 134 | 4.8 | 12.9 | 0.00 | 0.18 | 0.03 | 60 | 1029.1 |
| 20260830161610 | 20 | 132 | 3.2 | 6.4 | 0.00 | 0.18 | 0.03 | 59 | 1029.1 |
| 20260830161103 | 20 | 159 | 0.0 | 8.0 | 0.00 | 0.18 | 0.03 | 63 | 1029.0 |
| 20260830160617 | 19 | 159 | 3.2 | 8.0 | 0.00 | 0.18 | 0.03 | 61 | 1029.0 |
| 20260830160112 | 19 | 94 | 1.6 | 3.2 | 0.00 | 0.18 | 0.03 | 64 | 1028.9 |
| 20260830155605 | 18 | 149 | 0.0 | 3.2 | 0.00 | 0.18 | 0.03 | 65 | 1028.9 |
| 20260830155103 | 18 | 149 | 0.0 | 3.2 | 0.00 | 0.18 | 0.03 | 68 | 1029.0 |
| 20260830154616 | 18 | 149 | 1.6 | 4.8 | 0.00 | 0.18 | 0.03 | 66 | 1029.0 |
| 20260830154131 | 18 | 149 | 1.6 | 4.8 | 0.00 | 0.18 | 0.03 | 66 | 1028.9 |
| 20260830153624 | 17 | 137 | 0.0 | 0.0 | 0.00 | 0.18 | 0.03 | 69 | 1028.9 |
| 20260830153117 | 17 | 78 | 0.0 | 0.0 | 0.00 | 0.18 | 0.03 | 69 | 1028.8 |
| 20260830152610 | 17 | 134 | 0.0 | 0.0 | 0.00 | 0.18 | 0.03 | 72 | 1028.8 |
| 20260830152104 | 17 | 134 | 0.0 | 0.0 | 0.00 | 0.18 | 0.03 | 72 | 1028.8 |
| 20260830151617 | 17 | 134 | 0.0 | 0.0 | 0.00 | 0.18 | 0.03 | 71 | 1028.7 |
| 20260830151129 | 17 | 134 | 0.0 | 0.0 | 0.00 | 0.18 | 0.03 | 73 | 1028.7 |
| 20260830150602 | 17 | 134 | 0.0 | 0.0 | 0.00 | 0.18 | 0.03 | 75 | 1028.6 |
| 20260830150119 | 17 | 134 | 0.0 | 0.0 | 0.00 | 0.18 | 0.03 | 73 | 1028.6 |
| 20260830145633 | 17 | 134 | 0.0 | 0.0 | 0.00 | 0.18 | 0.03 | 73 | 1028.7 |
| 20260830145105 | 17 | 134 | 0.0 | 0.0 | 0.00 | 0.18 | 0.03 | 74 | 1028.6 |
| 20260830144639 | 16 | 134 | 0.0 | 0.0 | 0.00 | 0.18 | 0.03 | 75 | 1028.6 |
| 20260830144112 | 16 | 134 | 0.0 | 0.0 | 0.00 | 0.18 | 0.03 | 75 | 1028.6 |
| 20260830143606 | 16 | 134 | 0.0 | 0.0 | 0.00 | 0.18 | 0.03 | 79 | 1028.7 |
| 20260830143119 | 16 | 134 | 0.0 | 0.0 | 0.00 | 0.18 | 0.03 | 80 | 1028.7 |
| 20260830142613 | 16 | 134 | 0.0 | 0.0 | 0.00 | 0.18 | 0.03 | 77 | 1028.8 |
| 20260830142106 | 16 | 134 | 0.0 | 0.0 | 0.00 | 0.18 | 0.03 | 81 | 1028.6 |
| 20260830141605 | 16 | 66 | 0.0 | 0.0 | 0.00 | 0.18 | 0.03 | 82 | 1028.7 |
| 20260830141118 | 15 | 66 | 0.0 | 0.0 | 0.00 | 0.18 | 0.03 | 80 | 1028.6 |
| 20260830140612 | 15 | 66 | 0.0 | 0.0 | 0.00 | 0.18 | 0.03 | 81 | 1028.7 |
| 20260830140105 | 15 | 66 | 0.0 | 0.0 | 0.00 | 0.18 | 0.03 | 81 | 1028.5 |
| 20260830135621 | 15 | 66 | 0.0 | 0.0 | 0.00 | 0.18 | 0.03 | 83 | 1028.6 |
| 20260830135114 | 15 | 66 | 0.0 | 0.0 | 0.00 | 0.18 | 0.03 | 83 | 1028.6 |
| 20260830134608 | 15 | 66 | 0.0 | 0.0 | 0.00 | 0.18 | 0.03 | 82 | 1028.5 |
| 20260830134102 | 15 | 66 | 0.0 | 0.0 | 0.00 | 0.18 | 0.03 | 81 | 1028.5 |
| 20260830133601 | 15 | 66 | 0.0 | 0.0 | 0.00 | 0.18 | 0.03 | 81 | 1028.5 |
| 20260830133113 | 15 | 66 | 0.0 | 0.0 | 0.00 | 0.18 | 0.03 | 82 | 1028.6 |
| 20260830132608 | 15 | 66 | 0.0 | 0.0 | 0.00 | 0.18 | 0.03 | 82 | 1028.5 |
| 20260830132102 | 15 | 66 | 0.0 | 0.0 | 0.00 | 0.18 | 0.03 | 83 | 1028.5 |
| 20260830131616 | 15 | 144 | 0.0 | 0.0 | 0.00 | 0.18 | 0.03 | 83 | 1028.3 |
| 20260830131110 | 14 | 144 | 0.0 | 0.0 | 0.00 | 0.18 | 0.03 | 83 | 1028.3 |
| 20260830130604 | 14 | 144 | 0.0 | 0.0 | 0.00 | 0.18 | 0.03 | 83 | 1028.1 |
| 20260830130119 | 14 | 144 | 0.0 | 0.0 | 0.00 | 0.18 | 0.03 | 83 | 1028.0 |
| 20260830125635 | 14 | 144 | 0.0 | 0.0 | 0.00 | 0.18 | 0.03 | 83 | 1028.0 |
| 20260830125112 | 14 | 144 | 0.0 | 0.0 | 0.00 | 0.18 | 0.03 | 83 | 1027.9 |
| 20260830124606 | 14 | 144 | 0.0 | 0.0 | 0.00 | 0.18 | 0.03 | 83 | 1027.8 |
| 20260830124100 | 14 | 144 | 0.0 | 0.0 | 0.00 | 0.18 | 0.03 | 83 | 1027.9 |
| 20260830123635 | 14 | 144 | 0.0 | 0.0 | 0.00 | 0.18 | 0.03 | 83 | 1027.9 |
| 20260830123108 | 14 | 144 | 0.0 | 0.0 | 0.00 | 0.18 | 0.03 | 81 | 1027.8 |
| 20260830122602 | 14 | 144 | 0.0 | 0.0 | 0.00 | 0.18 | 0.03 | 82 | 1027.6 |
| 20260830122116 | 14 | 144 | 0.0 | 0.0 | 0.00 | 0.18 | 0.03 | 82 | 1027.5 |
| 20260830121611 | 14 | 144 | 0.0 | 0.0 | 0.00 | 0.18 | 0.03 | 82 | 1027.4 |
| 20260830121108 | 14 | 144 | 0.0 | 0.0 | 0.00 | 0.18 | 0.03 | 82 | 1027.4 |
| 20260830120602 | 14 | 144 | 0.0 | 0.0 | 0.00 | 0.18 | 0.03 | 82 | 1027.3 |
| 20260830120115 | 14 | 144 | 0.0 | 0.0 | 0.00 | 0.18 | 0.03 | 82 | 1027.2 |
| 20260830115610 | 14 | 144 | 0.0 | 0.0 | 0.00 | 0.18 | 0.03 | 83 | 1027.3 |
| 20260830115103 | 14 | 144 | 0.0 | 0.0 | 0.00 | 0.18 | 0.03 | 82 | 1027.3 |
| 20260830114637 | 14 | 144 | 0.0 | 0.0 | 0.00 | 0.18 | 0.03 | 82 | 1027.4 |
| 20260830114129 | 14 | 144 | 0.0 | 0.0 | 0.00 | 0.18 | 0.03 | 82 | 1027.4 |
| 20260830113602 | 14 | 144 | 0.0 | 0.0 | 0.00 | 0.18 | 0.03 | 81 | 1027.4 |
| 20260830113136 | 14 | 144 | 0.0 | 0.0 | 0.00 | 0.18 | 0.03 | 81 | 1027.4 |
| 20260830112629 | 14 | 144 | 0.0 | 0.0 | 0.00 | 0.18 | 0.03 | 82 | 1027.4 |
| 20260830112107 | 14 | 144 | 0.0 | 0.0 | 0.00 | 0.18 | 0.03 | 81 | 1027.4 |
| 20260830111600 | 14 | 71 | 0.0 | 0.0 | 0.00 | 0.18 | 0.03 | 81 | 1027.4 |
| 20260830111135 | 14 | 71 | 0.0 | 0.0 | 0.00 | 0.18 | 0.03 | 81 | 1027.4 |
| 20260830110608 | 14 | 71 | 0.0 | 0.0 | 0.00 | 0.18 | 0.03 | 81 | 1027.5 |
| 20260830105615 | 15 | 71 | 0.0 | 0.0 | 0.00 | 0.18 | 0.03 | 80 | 1027.6 |
| 20260830105109 | 15 | 71 | 0.0 | 0.0 | 0.00 | 0.18 | 0.03 | 81 | 1027.6 |
| 20260830104603 | 15 | 71 | 0.0 | 0.0 | 0.00 | 0.18 | 0.03 | 80 | 1027.5 |
| 20260830104115 | 15 | 71 | 0.0 | 0.0 | 0.00 | 0.18 | 0.03 | 79 | 1027.5 |
| 20260830103630 | 15 | 71 | 0.0 | 0.0 | 0.00 | 0.18 | 0.03 | 80 | 1027.4 |
| 20260830103107 | 15 | 71 | 0.0 | 0.0 | 0.00 | 0.18 | 0.03 | 79 | 1027.4 |
| 20260830102601 | 15 | 71 | 0.0 | 0.0 | 0.00 | 0.18 | 0.03 | 77 | 1027.4 |
| 20260830102134 | 16 | 71 | 0.0 | 0.0 | 0.00 | 0.18 | 0.03 | 78 | 1027.6 |
| 20260830101608 | 16 | 71 | 0.0 | 0.0 | 0.00 | 0.18 | 0.03 | 76 | 1027.7 |
| 20260830101102 | 16 | 71 | 0.0 | 0.0 | 0.00 | 0.18 | 0.03 | 76 | 1027.6 |
| 20260830100615 | 16 | 71 | 0.0 | 0.0 | 0.03 | 0.18 | 0.03 | 76 | 1027.6 |
| 20260830100108 | 16 | 71 | 0.0 | 0.0 | 0.03 | 0.18 | 0.03 | 75 | 1027.6 |
| 20260830095623 | 16 | 71 | 0.0 | 0.0 | 0.03 | 0.18 | 0.03 | 75 | 1027.6 |
| 20260830095116 | 16 | 63 | 0.0 | 0.0 | 0.03 | 0.18 | 0.03 | 75 | 1027.5 |
| 20260830094614 | 16 | 63 | 0.0 | 0.0 | 0.03 | 0.18 | 0.03 | 75 | 1027.6 |
| 20260830094128 | 16 | 63 | 0.0 | 0.0 | 0.03 | 0.18 | 0.03 | 75 | 1027.5 |
| 20260830093601 | 16 | 155 | 0.0 | 3.2 | 0.03 | 0.18 | 0.03 | 76 | 1027.5 |
| 20260830093114 | 16 | 355 | 0.0 | 4.8 | 0.03 | 0.18 | 0.03 | 77 | 1027.4 |
| 20260830092608 | 16 | 46 | 0.0 | 3.2 | 0.03 | 0.18 | 0.03 | 76 | 1027.2 |
| 20260830092101 | 16 | 46 | 0.0 | 3.2 | 0.03 | 0.18 | 0.03 | 77 | 1027.1 |
| 20260830091615 | 16 | 59 | 0.0 | 0.0 | 0.03 | 0.18 | 0.03 | 75 | 1027.2 |
| 20260830091109 | 16 | 137 | 0.0 | 0.0 | 0.03 | 0.18 | 0.03 | 77 | 1027.2 |
| 20260830090625 | 16 | 137 | 0.0 | 0.0 | 0.00 | 0.15 | 0.00 | 76 | 1027.2 |
| 20260830090122 | 16 | 137 | 0.0 | 0.0 | 0.00 | 0.15 | 0.00 | 76 | 1027.2 |
| 20260830085615 | 17 | 137 | 0.0 | 8.0 | 0.00 | 0.15 | 0.00 | 75 | 1027.1 |
| 20260830085130 | 17 | 137 | 1.6 | 11.3 | 0.00 | 0.15 | 0.00 | 74 | 1027.1 |
| 20260830084602 | 17 | 140 | 3.2 | 11.3 | 0.00 | 0.15 | 0.00 | 68 | 1027.2 |
| 20260830084136 | 17 | 58 | 1.6 | 9.7 | 0.00 | 0.15 | 0.00 | 67 | 1027.2 |
| 20260830083609 | 16 | 23 | 1.6 | 16.1 | 0.00 | 0.15 | 0.00 | 68 | 1027.2 |
| 20260830083101 | 16 | 78 | 1.6 | 11.3 | 0.00 | 0.15 | 0.00 | 74 | 1027.2 |
| 20260830082635 | 15 | 109 | 1.6 | 9.7 | 0.00 | 0.15 | 0.00 | 77 | 1027.3 |
| 20260830082129 | 15 | 150 | 1.6 | 8.0 | 0.00 | 0.15 | 0.00 | 86 | 1027.5 |
| 20260830081602 | 15 | 167 | 0.0 | 3.2 | 0.00 | 0.15 | 0.00 | 86 | 1027.8 |
| 20260830081115 | 15 | 167 | 0.0 | 0.0 | 0.00 | 0.15 | 0.00 | 86 | 1028.1 |
| 20260830080631 | 16 | 167 | 0.0 | 0.0 | 0.00 | 0.15 | 0.00 | 85 | 1028.2 |
| 20260830080108 | 16 | 167 | 0.0 | 0.0 | 0.00 | 0.15 | 0.00 | 84 | 1028.6 |
| 20260830075602 | 16 | 167 | 0.0 | 0.0 | 0.00 | 0.15 | 0.00 | 83 | 1028.8 |
| 20260830075137 | 16 | 167 | 0.0 | 0.0 | 0.00 | 0.15 | 0.00 | 81 | 1028.9 |
| 20260830074610 | 16 | 167 | 0.0 | 0.0 | 0.00 | 0.15 | 0.00 | 81 | 1028.6 |
| 20260830074104 | 16 | 167 | 0.0 | 0.0 | 0.00 | 0.15 | 0.00 | 81 | 1028.5 |
| 20260830073617 | 16 | 167 | 0.0 | 0.0 | 0.00 | 0.15 | 0.00 | 80 | 1028.4 |
| 20260830073111 | 16 | 167 | 0.0 | 0.0 | 0.00 | 0.15 | 0.00 | 81 | 1028.4 |
| 20260830072605 | 16 | 167 | 0.0 | 0.0 | 0.00 | 0.15 | 0.00 | 81 | 1028.3 |
| 20260830072103 | 16 | 167 | 0.0 | 0.0 | 0.00 | 0.15 | 0.00 | 80 | 1028.4 |
| 20260830071618 | 16 | 167 | 0.0 | 0.0 | 0.00 | 0.15 | 0.00 | 80 | 1028.4 |
| 20260830071111 | 16 | 167 | 0.0 | 0.0 | 0.00 | 0.15 | 0.00 | 80 | 1028.3 |
| 20260830070605 | 16 | 167 | 0.0 | 0.0 | 0.00 | 0.15 | 0.00 | 80 | 1028.4 |
| 20260830070119 | 16 | 167 | 0.0 | 0.0 | 0.00 | 0.15 | 0.00 | 79 | 1028.4 |
| 20260830065612 | 16 | 167 | 0.0 | 0.0 | 0.00 | 0.15 | 0.00 | 79 | 1028.4 |
| 20260830065106 | 16 | 167 | 0.0 | 0.0 | 0.00 | 0.15 | 0.00 | 79 | 1028.4 |
| 20260830064619 | 16 | 167 | 0.0 | 0.0 | 0.00 | 0.15 | 0.00 | 78 | 1028.5 |
| 20260830064134 | 16 | 167 | 0.0 | 0.0 | 0.00 | 0.15 | 0.00 | 79 | 1028.6 |
| 20260830063610 | 16 | 167 | 0.0 | 0.0 | 0.00 | 0.15 | 0.00 | 78 | 1028.5 |
| 20260830063105 | 16 | 167 | 0.0 | 0.0 | 0.00 | 0.15 | 0.15 | 78 | 1028.5 |
| 20260830062619 | 16 | 167 | 0.0 | 0.0 | 0.00 | 0.15 | 0.15 | 78 | 1028.5 |
| 20260830062113 | 16 | 167 | 0.0 | 0.0 | 0.00 | 0.15 | 0.15 | 79 | 1028.6 |
| 20260830061608 | 16 | 167 | 0.0 | 4.8 | 0.00 | 0.15 | 0.15 | 77 | 1028.6 |
| 20260830061121 | 16 | 167 | 1.6 | 6.4 | 0.00 | 0.15 | 0.15 | 77 | 1028.5 |
| 20260830060615 | 16 | 175 | 0.0 | 0.0 | 0.00 | 0.15 | 0.15 | 78 | 1028.5 |
| 20260830060108 | 16 | 175 | 0.0 | 0.0 | 0.00 | 0.15 | 0.15 | 77 | 1028.5 |
| 20260830055606 | 16 | 175 | 0.0 | 0.0 | 0.00 | 0.15 | 0.15 | 78 | 1028.5 |
| 20260830055100 | 16 | 175 | 0.0 | 0.0 | 0.00 | 0.15 | 0.15 | 77 | 1028.5 |
| 20260830054614 | 16 | 175 | 0.0 | 0.0 | 0.00 | 0.15 | 0.15 | 76 | 1028.7 |
| 20260830054108 | 16 | 175 | 0.0 | 0.0 | 0.00 | 0.15 | 0.15 | 77 | 1028.7 |